Thursday, July 19, 2018, 1:29 AM EDT
Back to Local

KBUF, Greater Buffalo International Airport

Location: Buffalo, NY, United States Lat: 42.933
Local Time: 1:29 AM EDT ( 5:29 GMT) Lon: -78.733
Time Zone: US/Eastern Elev: 725 ft

Show me the last for .
Show Decoded

2018-07-19 00:54 METAR KBUF 190454Z 15003KT 10SM CLR 16/11 A3007 RMK AO2 SLP181 T01610106
                 402560161 =
2018-07-18 23:54 METAR KBUF 190354Z 14005KT 10SM FEW150 18/10 A3007 RMK AO2 SLP179 T01830100 =
2018-07-18 22:54 METAR KBUF 190254Z 12004KT 10SM FEW200 19/09 A3006 RMK AO2 SLP176 T01940089
                 53005 =
2018-07-18 21:54 METAR KBUF 190154Z 07003KT 10SM FEW055 FEW200 21/09 A3005 RMK AO2 SLP173
                 T02060089 =
2018-07-18 20:54 METAR KBUF 190054Z 03005KT 10SM FEW055 FEW150 21/09 A3004 RMK AO2 SLP169
                 T02110089 =
2018-07-18 19:54 METAR KBUF 182354Z 03005KT 10SM FEW055 FEW200 23/09 A3004 RMK AO2 SLP169
                 T02280094 10256 20228 55000 =
2018-07-18 18:54 METAR KBUF 182254Z 34005KT 10SM FEW055 FEW230 24/09 A3004 RMK AO2 SLP169
                 T02440094 =
2018-07-18 17:54 METAR KBUF 182154Z 28005KT 10SM FEW055 FEW230 24/07 A3004 RMK AO2 SLP167
                 T02440072 =
2018-07-18 16:54 METAR KBUF 182054Z 02006KT 10SM FEW055 FEW170 FEW230 24/09 A3004 RMK AO2 SLP169
                 T02440089 58005 =
2018-07-18 15:54 METAR KBUF 181954Z 02006KT 10SM FEW055 FEW250 24/10 A3005 RMK AO2 SLP173
                 T02440100 =
2018-07-18 14:54 METAR KBUF 181854Z 28007KT 10SM FEW055 FEW250 25/11 A3005 RMK AO2 SLP173
                 T02500106 =
2018-07-18 13:54 METAR KBUF 181754Z 35007KT 10SM SCT055 SCT250 24/11 A3006 RMK AO2 SLP175
                 T02440106 10250 20189 58005 =
2018-07-18 12:54 METAR KBUF 181654Z 31008KT 10SM BKN048 BKN250 24/11 A3006 RMK AO2 SLP177
                 T02440106 =
2018-07-18 11:54 METAR KBUF 181554Z VRB03KT 10SM BKN046 BKN230 BKN270 23/11 A3007 RMK AO2 SLP180
                 T02330111 =
2018-07-18 10:54 METAR KBUF 181454Z 02005KT 10SM BKN039 BKN060 BKN270 21/12 A3007 RMK AO2 SLP180
                 T02110117 50004 =
2018-07-18 09:54 METAR KBUF 181354Z 36004KT 10SM FEW029 SCT060 SCT270 21/13 A3007 RMK AO2 SLP181
                 T02110128 =
2018-07-18 08:54 METAR KBUF 181254Z 06008KT 10SM FEW025 BKN055 BKN270 21/13 A3007 RMK AO2 SLP179
                 T02060133 =
2018-07-18 07:54 METAR KBUF 181154Z 03008KT 10SM SCT050 19/14 A3006 RMK AO2 SLP176 T01940139
                 10194 20172 53018 =
2018-07-18 06:54 METAR KBUF 181054Z 03007KT 10SM FEW060 18/13 A3004 RMK AO2 SLP168 T01780133 =
2018-07-18 05:54 METAR KBUF 180954Z 01004KT 10SM SCT055 17/13 A3002 RMK AO2 SLP163 T01720133 =
2018-07-18 04:54 METAR KBUF 180854Z 35007KT 10SM CLR 17/14 A3001 RMK AO2 SLP158 T01720139 53009 =
2018-07-18 03:54 METAR KBUF 180754Z 33006KT 10SM CLR 18/13 A2999 RMK AO2 SLP153 T01780133 =
2018-07-18 02:54 METAR KBUF 180654Z 33008KT 10SM CLR 18/13 A2998 RMK AO2 SLP148 T01830128 =
2018-07-18 01:54 METAR KBUF 180554Z 32008KT 10SM FEW060 19/12 A2998 RMK AO2 SLP147 T01890117
                 10256 20189 52003 =

Support USWX by starting your Amazon purchase here.